Time;durP1;ratioP1;P1;durP2;ratioP2;P2;SDS_P1;SDS_P2;PMS_P1;PMS_P2;Temp;Humidity;BMP_temperature;BMP_pressure;BME280_temperature;BME280_humidity;BME280_pressure;Samples;Min_cycle;Max_cycle;Signal;HPM_P1;HPM_P2
2023/07/08 00:00:18;;;;;;;12.38;9.60;;;;;;;23.40;71.69;99949.56;5067453;28;20028;-17
2023/07/08 00:02:44;;;;;;;11.93;8.90;;;;;;;23.35;72.18;99950.47;5067677;28;20035;-18
2023/07/08 00:05:11;;;;;;;12.10;9.02;;;;;;;23.42;72.03;99952.78;5067591;28;20107;-23
2023/07/08 00:07:38;;;;;;;12.25;9.00;;;;;;;23.40;72.46;99944.13;5067670;28;20023;-17
2023/07/08 00:10:17;;;;;;;11.85;9.27;;;;;;;23.37;71.85;99934.63;5067820;28;20040;-17
2023/07/08 00:12:44;;;;;;;11.10;8.63;;;;;;;23.37;72.34;99931.09;5067387;28;20044;-17
2023/07/08 00:15:11;;;;;;;14.02;8.82;;;;;;;23.39;72.47;99937.03;5067298;28;20025;-21
2023/07/08 00:17:37;;;;;;;14.48;9.27;;;;;;;23.43;72.10;99927.94;5067879;28;20032;-18
2023/07/08 00:20:35;;;;;;;12.38;8.88;;;;;;;23.44;72.06;99924.13;5066919;28;20036;-17
2023/07/08 00:23:01;;;;;;;13.13;9.63;;;;;;;23.39;72.14;99923.44;5059764;28;20206;-18
2023/07/08 00:25:27;;;;;;;13.35;9.60;;;;;;;23.16;72.59;99915.25;5067309;28;20530;-17
2023/07/08 00:27:53;;;;;;;13.80;10.00;;;;;;;23.29;72.91;99920.97;5066919;28;20110;-19
2023/07/08 00:30:29;;;;;;;12.45;9.27;;;;;;;23.26;73.27;99911.50;5067068;28;20048;-19
2023/07/08 00:32:55;;;;;;;13.70;9.02;;;;;;;23.35;72.30;99909.63;5067005;28;20041;-18
2023/07/08 00:35:30;;;;;;;12.00;9.38;;;;;;;23.36;72.72;99915.91;5067081;28;20021;-17
2023/07/08 00:38:12;;;;;;;13.13;9.15;;;;;;;23.30;72.94;99912.50;5066995;28;20541;-17
2023/07/08 00:40:49;;;;;;;11.15;9.07;;;;;;;23.29;72.72;99910.88;5067046;28;20094;-18
2023/07/08 00:43:14;;;;;;;13.32;8.85;;;;;;;23.36;72.46;99921.34;5067234;28;20036;-18
2023/07/08 00:45:53;;;;;;;12.25;8.95;;;;;;;23.29;72.58;99919.03;5067015;28;20024;-17
2023/07/08 00:48:21;;;;;;;14.85;9.25;;;;;;;23.35;72.58;99930.63;5066484;28;20029;-17
2023/07/08 00:50:47;;;;;;;12.40;8.60;;;;;;;23.18;72.83;99920.38;5066810;28;20093;-18
2023/07/08 00:53:26;;;;;;;14.13;8.75;;;;;;;23.20;72.61;99918.16;5066699;28;20526;-18
2023/07/08 00:56:06;;;;;;;14.52;9.20;;;;;;;23.24;72.03;99917.25;5066652;28;20030;-18
2023/07/08 00:58:41;;;;;;;11.07;8.52;;;;;;;23.30;72.19;99917.13;5066647;28;20079;-17
2023/07/08 01:01:07;;;;;;;11.23;8.18;;;;;;;23.26;71.76;99920.47;5066658;28;20119;-17
2023/07/08 01:03:40;;;;;;;11.80;8.95;;;;;;;23.10;71.78;99913.75;5066559;28;20032;-18
2023/07/08 01:06:06;;;;;;;11.27;8.38;;;;;;;23.24;72.03;99914.53;5066336;28;20028;-18
2023/07/08 01:08:36;;;;;;;12.85;8.80;;;;;;;23.20;71.46;99913.53;5066062;28;20540;-17
2023/07/08 01:11:04;;;;;;;12.02;8.43;;;;;;;23.24;70.69;99903.63;5066101;28;20031;-17
2023/07/08 01:13:35;;;;;;;10.98;8.00;;;;;;;23.09;71.58;99904.00;5066239;28;20028;-17
2023/07/08 01:16:01;;;;;;;10.98;7.18;;;;;;;23.19;71.37;99922.00;5066311;28;20118;-18
2023/07/08 01:18:28;;;;;;;11.77;8.35;;;;;;;23.14;71.15;99931.06;5066231;28;20475;-18
2023/07/08 01:20:55;;;;;;;11.95;8.23;;;;;;;23.25;70.69;99927.03;5065932;28;20028;-17
2023/07/08 01:23:21;;;;;;;10.77;8.57;;;;;;;23.22;70.85;99933.06;5066250;28;20500;-17
2023/07/08 01:25:47;;;;;;;12.13;7.20;;;;;;;23.19;70.38;99930.97;5066524;28;20041;-18
2023/07/08 01:28:15;;;;;;;9.63;7.55;;;;;;;23.08;71.84;99937.75;5066052;28;20044;-17
2023/07/08 01:30:45;;;;;;;11.68;7.68;;;;;;;23.07;71.74;99930.72;5066146;28;20064;-17
2023/07/08 01:33:18;;;;;;;12.00;7.95;;;;;;;22.96;71.88;99930.06;5065959;28;20256;-17
2023/07/08 01:35:44;;;;;;;14.43;8.05;;;;;;;22.97;71.75;99920.00;5066036;28;20031;-18
2023/07/08 01:38:15;;;;;;;10.10;7.75;;;;;;;23.03;71.34;99921.53;5065734;28;20527;-20
2023/07/08 01:40:49;;;;;;;10.77;7.25;;;;;;;22.80;71.96;99905.13;5066067;28;20028;-18
2023/07/08 01:43:15;;;;;;;14.52;7.90;;;;;;;22.83;72.61;99928.19;5066060;28;20031;-17
2023/07/08 01:45:41;;;;;;;10.45;8.10;;;;;;;23.02;71.50;99930.81;5065648;28;20036;-17
2023/07/08 01:48:11;;;;;;;13.07;8.20;;;;;;;22.98;71.38;99927.06;5065526;28;20028;-17
2023/07/08 01:50:46;;;;;;;10.93;7.50;;;;;;;23.00;71.36;99933.00;5065733;28;20112;-18
2023/07/08 01:53:21;;;;;;;12.77;8.38;;;;;;;22.83;71.46;99912.69;5065451;28;20036;-17
2023/07/08 01:55:46;;;;;;;12.00;8.25;;;;;;;22.86;72.35;99938.44;5065826;28;20044;-16
2023/07/08 01:58:12;;;;;;;12.02;8.98;;;;;;;22.90;71.32;99935.94;5065139;28;20020;-17
2023/07/08 02:00:39;;;;;;;10.27;7.82;;;;;;;22.84;72.04;99938.78;5064852;28;20544;-17
2023/07/08 02:03:09;;;;;;;10.60;7.78;;;;;;;22.80;72.06;99945.09;5065198;28;20481;-18
2023/07/08 02:05:35;;;;;;;9.38;7.32;;;;;;;22.67;72.70;99941.28;5065382;28;20039;-17
2023/07/08 02:08:00;;;;;;;12.48;8.60;;;;;;;22.55;73.27;99946.41;5065216;28;20032;-17
2023/07/08 02:10:26;;;;;;;10.52;7.70;;;;;;;22.66;72.56;99950.56;5065327;28;20035;-17
2023/07/08 02:12:52;;;;;;;11.82;7.90;;;;;;;22.62;72.39;99957.72;5065268;28;20051;-17
2023/07/08 02:15:17;;;;;;;12.43;8.13;;;;;;;22.67;72.41;99950.25;5064869;28;20035;-17
2023/07/08 02:17:42;;;;;;;10.90;8.07;;;;;;;22.64;72.28;99955.50;5064987;28;20119;-18
2023/07/08 02:20:08;;;;;;;12.82;7.35;;;;;;;22.66;71.70;99954.06;5064617;28;20024;-17
2023/07/08 02:22:34;;;;;;;11.23;7.70;;;;;;;22.63;71.86;99954.66;5065048;28;20043;-19
2023/07/08 02:24:59;;;;;;;11.48;8.18;;;;;;;22.58;71.86;99967.56;5064917;28;20024;-17
2023/07/08 02:27:25;;;;;;;13.88;8.32;;;;;;;22.46;72.52;99958.00;5064876;28;20049;-17
2023/07/08 02:29:50;;;;;;;11.27;8.10;;;;;;;22.62;71.62;99961.22;5064817;28;20099;-17
2023/07/08 02:32:18;;;;;;;9.88;7.75;;;;;;;22.50;72.69;99979.16;5064838;28;20036;-17
2023/07/08 02:34:44;;;;;;;11.50;8.43;;;;;;;22.41;72.37;99973.56;5065055;28;20050;-19
2023/07/08 02:37:09;;;;;;;11.43;8.75;;;;;;;22.48;72.31;99973.19;5064655;28;20082;-17
2023/07/08 02:39:37;;;;;;;12.40;9.63;;;;;;;22.48;72.29;99984.06;5064642;28;20483;-17
2023/07/08 02:42:10;;;;;;;;;;;;;;;22.46;71.87;99976.22;5065089;28;20028;-17
2023/07/08 02:44:35;;;;;;;10.45;7.82;;;;;;;22.41;72.26;99977.13;5064750;28;19916;-17
2023/07/08 02:47:03;;;;;;;13.27;8.90;;;;;;;22.37;72.70;99978.81;5064485;28;20078;-18
2023/07/08 02:49:33;;;;;;;13.75;9.20;;;;;;;22.34;72.76;99979.41;5064488;28;20111;-17
2023/07/08 02:51:59;;;;;;;12.38;9.60;;;;;;;22.50;71.95;99987.28;5064627;28;20048;-17
2023/07/08 02:54:24;;;;;;;12.18;9.20;;;;;;;22.45;72.26;99991.72;5064469;28;20032;-17
2023/07/08 02:56:49;;;;;;;13.75;9.73;;;;;;;22.42;72.23;99995.03;5064189;28;20489;-17
2023/07/08 02:59:15;;;;;;;13.77;10.02;;;;;;;22.33;72.58;99988.69;5064528;28;20086;-18
2023/07/08 03:01:43;;;;;;;12.50;9.60;;;;;;;22.36;72.66;99998.94;5064261;28;20035;-16
2023/07/08 03:04:12;;;;;;;14.05;10.65;;;;;;;22.33;72.29;99999.53;5064198;28;20023;-18
2023/07/08 03:06:42;;;;;;;13.52;9.38;;;;;;;22.33;72.54;100015.84;5064287;28;20040;-17
2023/07/08 03:09:10;;;;;;;15.15;10.00;;;;;;;22.29;73.08;100012.09;5064508;28;20032;-17
2023/07/08 03:11:36;;;;;;;15.15;10.55;;;;;;;22.26;72.46;100004.53;5065017;28;20021;-17
2023/07/08 03:14:02;;;;;;;13.02;10.55;;;;;;;22.29;72.81;100019.44;5068498;28;20035;-17
2023/07/08 03:16:28;;;;;;;13.60;11.52;;;;;;;22.32;72.53;100022.38;5068778;28;20020;-17
2023/07/08 03:18:53;;;;;;;14.35;11.85;;;;;;;22.30;73.14;100021.88;5068065;28;20031;-18
2023/07/08 03:21:21;;;;;;;15.32;11.82;;;;;;;22.31;73.59;100028.91;5068277;28;20115;-18
2023/07/08 03:23:50;;;;;;;;;;;;;;;22.44;72.66;100030.84;5068857;28;20040;-17
2023/07/08 03:26:19;;;;;;;14.02;11.75;;;;;;;22.50;71.86;100025.34;5067916;28;19919;-17
2023/07/08 03:28:45;;;;;;;15.90;12.35;;;;;;;22.43;72.14;100037.41;5067908;28;20622;-18
2023/07/08 03:31:10;;;;;;;18.75;12.77;;;;;;;22.41;72.55;100044.22;5068561;28;20025;-19
2023/07/08 03:33:36;;;;;;;18.48;13.00;;;;;;;22.34;73.27;100039.19;5068130;28;20412;-18
2023/07/08 03:36:03;;;;;;;15.90;13.18;;;;;;;22.55;72.70;100044.25;5067952;28;20044;-17
2023/07/08 03:38:30;;;;;;;17.88;12.68;;;;;;;22.42;72.24;100030.34;5067928;28;20056;-16
2023/07/08 03:40:56;;;;;;;15.23;13.07;;;;;;;22.39;72.11;100047.25;5068038;28;20028;-17
2023/07/08 03:43:21;;;;;;;16.23;13.32;;;;;;;22.39;73.23;100055.41;5068198;28;20025;-18
2023/07/08 03:45:47;;;;;;;15.25;12.68;;;;;;;22.37;72.99;100065.78;5067732;28;20409;-18
2023/07/08 03:48:12;;;;;;;17.08;14.35;;;;;;;22.38;73.80;100061.94;5068054;28;20021;-17
2023/07/08 03:50:38;;;;;;;15.30;13.55;;;;;;;22.40;74.35;100065.16;5067818;28;20162;-17
2023/07/08 03:53:04;;;;;;;16.08;13.25;;;;;;;22.42;73.31;100060.22;5067883;28;20036;-17
2023/07/08 03:55:30;;;;;;;18.05;13.88;;;;;;;22.23;74.41;100054.84;5067360;28;20028;-18
2023/07/08 03:57:58;;;;;;;16.60;13.68;;;;;;;22.30;73.51;100054.47;5067447;28;20445;-19
2023/07/08 04:00:23;;;;;;;;;;;;;;;22.22;74.31;100063.25;5068454;28;20033;-17
2023/07/08 04:02:48;;;;;;;20.13;14.70;;;;;;;22.30;74.40;100049.03;5067339;28;19927;-18
2023/07/08 04:05:19;;;;;;;17.83;14.80;;;;;;;22.26;74.71;100061.59;5067592;28;20299;-21
2023/07/08 04:07:47;;;;;;;18.20;14.70;;;;;;;22.26;74.90;100053.44;5067324;28;20029;-18
2023/07/08 04:10:14;;;;;;;16.25;14.45;;;;;;;22.24;74.72;100045.59;5067357;28;20056;-17
2023/07/08 04:12:40;;;;;;;18.38;14.45;;;;;;;22.41;74.25;100061.34;5067714;28;20679;-17
2023/07/08 04:15:08;;;;;;;18.77;15.20;;;;;;;22.40;73.64;100037.19;5068307;28;20119;-16
2023/07/08 04:17:36;;;;;;;19.02;14.18;;;;;;;22.46;73.50;100063.97;5067899;28;20060;-17
2023/07/08 04:20:03;;;;;;;17.35;15.40;;;;;;;22.43;73.93;100069.19;5067446;28;20032;-18
2023/07/08 04:22:29;;;;;;;17.38;14.90;;;;;;;22.32;74.21;100060.41;5066666;28;20043;-17
2023/07/08 04:24:55;;;;;;;17.35;14.65;;;;;;;22.35;74.34;100067.97;5066985;28;20032;-17
2023/07/08 04:27:20;;;;;;;18.55;15.65;;;;;;;22.18;74.84;100051.38;5066920;28;20134;-17
2023/07/08 04:29:46;;;;;;;17.88;14.82;;;;;;;22.04;75.63;100043.97;5066830;28;20527;-17
2023/07/08 04:32:13;;;;;;;16.23;14.50;;;;;;;22.16;75.64;100046.22;5067408;28;20036;-17
2023/07/08 04:34:39;;;;;;;18.40;14.02;;;;;;;22.09;75.99;100026.81;5066984;28;20418;-17
2023/07/08 04:37:04;;;;;;;16.80;14.25;;;;;;;21.94;76.31;100016.19;5067326;28;20127;-17
2023/07/08 04:39:30;;;;;;;19.38;14.95;;;;;;;21.78;76.53;99983.84;5066676;28;20023;-17
2023/07/08 04:41:56;;;;;;;18.50;14.68;;;;;;;21.94;76.43;99987.13;5066779;28;20032;-17
2023/07/08 04:44:22;;;;;;;18.45;15.65;;;;;;;21.85;76.65;99983.47;5067044;28;20029;-18
2023/07/08 04:46:53;;;;;;;19.15;14.68;;;;;;;21.52;78.17;99967.16;5066514;28;20078;-18
2023/07/08 04:49:19;;;;;;;21.23;16.13;;;;;;;21.67;77.96;99988.63;5067373;28;20038;-17
2023/07/08 04:51:45;;;;;;;20.65;16.17;;;;;;;21.70;77.60;99991.84;5066625;28;20504;-21
2023/07/08 04:54:11;;;;;;;19.33;15.52;;;;;;;21.67;77.54;100002.19;5066702;28;20035;-18
2023/07/08 04:56:43;;;;;;;21.58;16.17;;;;;;;21.63;77.45;100003.88;5066806;28;20036;-17
2023/07/08 04:59:10;;;;;;;20.42;16.58;;;;;;;21.67;77.32;100010.34;5066153;28;20032;-18
2023/07/08 05:01:37;;;;;;;18.13;15.18;;;;;;;21.49;77.88;99997.56;5066275;28;20062;-16
2023/07/08 05:04:05;;;;;;;17.40;15.15;;;;;;;21.58;77.41;99997.75;5065409;28;20117;-19
2023/07/08 05:06:30;;;;;;;;;;;;;;;21.82;76.65;100006.59;5065884;28;20024;-17
2023/07/08 05:08:56;;;;;;;20.95;15.52;;;;;;;21.86;76.05;100006.78;5066550;28;19961;-17
2023/07/08 05:11:21;;;;;;;17.05;13.90;;;;;;;21.95;75.22;99988.75;5066355;28;20476;-18
2023/07/08 05:13:46;;;;;;;17.80;14.27;;;;;;;22.22;74.13;100014.38;5066850;28;20067;-21
2023/07/08 05:16:12;;;;;;;17.65;15.05;;;;;;;22.43;74.25;100018.38;5065977;28;20031;-17
2023/07/08 05:18:37;;;;;;;19.00;14.82;;;;;;;22.67;73.16;100020.91;5066068;28;20154;-18
2023/07/08 05:21:03;;;;;;;16.42;14.73;;;;;;;22.77;73.11;100009.03;5065846;28;20390;-19
2023/07/08 05:23:29;;;;;;;17.42;14.50;;;;;;;22.98;72.00;100000.47;5066034;28;20465;-17
2023/07/08 05:26:07;;;;;;;17.15;13.55;;;;;;;22.84;72.20;100000.47;5066116;28;20032;-18
2023/07/08 05:28:33;;;;;;;18.45;14.80;;;;;;;23.11;71.81;99993.44;5065956;28;20041;-16
2023/07/08 05:30:59;;;;;;;14.88;12.38;;;;;;;23.37;70.14;100005.38;5065916;28;20032;-17
2023/07/08 05:33:26;;;;;;;14.77;13.18;;;;;;;23.51;69.67;100005.34;5066329;28;20483;-17
2023/07/08 05:35:51;;;;;;;15.65;12.88;;;;;;;23.41;69.86;100011.03;5065171;28;20077;-17
2023/07/08 05:38:17;;;;;;;15.93;11.80;;;;;;;23.55;68.08;100011.00;5066411;28;20028;-19
2023/07/08 05:40:43;;;;;;;15.95;12.77;;;;;;;23.66;69.13;100018.63;5065708;28;20138;-17
2023/07/08 05:43:09;;;;;;;13.93;12.18;;;;;;;23.99;67.65;100020.34;5065791;28;20112;-17
2023/07/08 05:45:35;;;;;;;16.65;12.27;;;;;;;24.02;67.73;100009.63;5065709;28;20596;-17
2023/07/08 05:48:01;;;;;;;14.85;13.13;;;;;;;24.15;67.55;100032.47;5065852;28;20056;-17
2023/07/08 05:50:27;;;;;;;15.40;12.80;;;;;;;24.30;66.53;100034.00;5065921;28;20032;-16
2023/07/08 05:52:52;;;;;;;16.15;12.60;;;;;;;24.38;65.25;100033.25;5065830;28;20159;-18
2023/07/08 05:55:17;;;;;;;15.48;12.55;;;;;;;24.18;66.07;100047.41;5065554;28;20420;-25
2023/07/08 05:57:43;;;;;;;15.20;12.18;;;;;;;24.51;64.84;100047.13;5065847;28;20025;-17
2023/07/08 06:00:10;;;;;;;13.68;12.27;;;;;;;24.52;65.38;100040.56;5065654;28;20039;-17
2023/07/08 06:02:35;;;;;;;15.43;12.68;;;;;;;24.60;65.63;100058.88;5065376;28;20093;-17
2023/07/08 06:05:03;;;;;;;14.23;12.55;;;;;;;24.36;64.44;100051.84;5064027;28;20025;-17
2023/07/08 06:07:28;;;;;;;;;;;;;;;24.57;64.73;100048.63;5065822;28;20032;-17
2023/07/08 06:09:55;;;;;;;13.48;12.05;;;;;;;24.52;64.93;100043.28;5065496;28;19912;-17
2023/07/08 06:12:21;;;;;;;15.77;12.15;;;;;;;24.69;63.85;100051.56;5065481;28;20025;-17
2023/07/08 06:14:47;;;;;;;14.50;12.52;;;;;;;24.85;64.90;100041.03;5065475;28;20097;-17
2023/07/08 06:17:15;;;;;;;14.75;11.50;;;;;;;25.10;62.49;100055.88;5065224;28;20440;-18
2023/07/08 06:19:41;;;;;;;15.75;12.57;;;;;;;24.99;63.83;100049.13;5065183;28;20081;-18
2023/07/08 06:22:06;;;;;;;16.05;12.32;;;;;;;25.17;63.49;100050.78;5065161;28;20032;-18
2023/07/08 06:24:32;;;;;;;15.15;11.95;;;;;;;25.17;63.44;100048.06;5064872;28;20436;-17
2023/07/08 06:26:57;;;;;;;16.33;11.27;;;;;;;25.38;61.70;100069.31;5065185;28;20105;-18
2023/07/08 06:29:24;;;;;;;14.02;11.45;;;;;;;25.41;62.55;100060.47;5065100;28;20517;-16
2023/07/08 06:31:49;;;;;;;15.93;11.35;;;;;;;25.60;59.97;100061.00;5064959;28;20120;-20
2023/07/08 06:34:17;;;;;;;14.52;11.40;;;;;;;25.70;60.55;100064.53;5064992;28;20053;-17
2023/07/08 06:36:43;;;;;;;14.13;10.93;;;;;;;25.81;59.83;100065.84;5064936;28;20032;-18
2023/07/08 06:39:11;;;;;;;13.32;10.50;;;;;;;25.95;57.94;100074.69;5064706;28;20043;-17
2023/07/08 06:41:40;;;;;;;12.73;10.02;;;;;;;25.79;57.21;100079.00;5064727;28;20035;-17
2023/07/08 06:44:05;;;;;;;13.20;11.10;;;;;;;25.82;57.97;100064.69;5064401;28;20402;-18
2023/07/08 06:46:31;;;;;;;12.55;10.88;;;;;;;25.81;56.21;100076.75;5064761;28;20043;-18
2023/07/08 06:48:57;;;;;;;13.23;11.10;;;;;;;25.97;57.76;100074.34;5064925;28;20024;-18
2023/07/08 06:51:22;;;;;;;12.57;10.20;;;;;;;26.14;55.24;100084.50;5064633;28;20032;-17
2023/07/08 06:53:53;;;;;;;14.80;11.48;;;;;;;26.49;56.49;100078.97;5065017;28;20020;-18
2023/07/08 06:56:21;;;;;;;14.15;10.20;;;;;;;26.64;56.67;100081.19;5064698;28;20131;-18
2023/07/08 06:58:47;;;;;;;14.07;11.27;;;;;;;26.74;55.85;100086.31;5065340;28;20048;-18
2023/07/08 07:01:12;;;;;;;12.23;10.13;;;;;;;26.67;55.29;100086.03;5064229;28;20056;-18
2023/07/08 07:03:38;;;;;;;14.10;10.40;;;;;;;26.66;53.75;100100.81;5065055;28;20021;-17
2023/07/08 07:06:03;;;;;;;11.82;10.63;;;;;;;26.44;55.04;100088.16;5064576;28;20059;-18
2023/07/08 07:08:29;;;;;;;12.23;10.15;;;;;;;26.44;55.37;100088.94;5064601;28;20059;-18
2023/07/08 07:10:57;;;;;;;11.77;10.32;;;;;;;26.48;56.02;100099.22;5064490;28;20039;-18
2023/07/08 07:13:22;;;;;;;15.00;10.23;;;;;;;26.48;55.42;100099.22;5064682;28;20539;-17
2023/07/08 07:15:49;;;;;;;12.68;9.55;;;;;;;26.70;53.30;100100.97;5064595;28;20056;-17
2023/07/08 07:18:24;;;;;;;12.10;10.13;;;;;;;27.03;55.12;100098.44;5064424;28;20029;-17
2023/07/08 07:20:53;;;;;;;11.50;9.77;;;;;;;27.15;53.13;100101.28;5064689;28;20025;-17
2023/07/08 07:23:19;;;;;;;12.25;10.38;;;;;;;27.21;54.37;100094.47;5064630;28;20020;-19
2023/07/08 07:25:47;;;;;;;12.27;8.80;;;;;;;27.19;53.49;100098.69;5064524;28;20025;-18
2023/07/08 07:28:16;;;;;;;11.65;9.25;;;;;;;27.22;54.15;100101.56;5064253;28;20596;-18
2023/07/08 07:30:43;;;;;;;11.68;10.15;;;;;;;27.39;52.07;100091.69;5064571;28;20082;-18
2023/07/08 07:33:08;;;;;;;10.13;8.90;;;;;;;27.09;52.01;100091.63;5064483;28;20036;-18
2023/07/08 07:35:33;;;;;;;11.93;8.65;;;;;;;26.89;52.53;100095.94;5064423;28;20470;-18
2023/07/08 07:37:59;;;;;;;13.60;9.23;;;;;;;26.84;53.08;100091.44;5064258;28;20127;-17
2023/07/08 07:40:24;;;;;;;13.05;9.35;;;;;;;26.93;52.36;100090.59;5064122;28;20024;-18
2023/07/08 07:42:52;;;;;;;11.10;8.18;;;;;;;26.86;53.29;100093.84;5064301;28;20029;-17
2023/07/08 07:45:17;;;;;;;;;;;;;;;26.93;52.98;100087.84;5064651;28;20024;-17
2023/07/08 07:47:43;;;;;;;8.70;6.47;;;;;;;26.85;53.33;100087.56;5064369;28;19916;-18
2023/07/08 07:50:11;;;;;;;9.55;7.57;;;;;;;26.88;52.18;100090.78;5064011;28;20052;-17
2023/07/08 07:52:37;;;;;;;11.18;7.43;;;;;;;26.97;53.52;100089.63;5064256;28;20111;-17
2023/07/08 07:55:03;;;;;;;8.85;7.68;;;;;;;27.13;53.56;100078.91;5064346;28;20135;-18
2023/07/08 07:57:28;;;;;;;8.70;7.80;;;;;;;27.47;53.83;100074.41;5064606;28;20032;-17
2023/07/08 07:59:54;;;;;;;9.18;7.28;;;;;;;27.49;52.56;100083.09;5067765;28;20024;-17
2023/07/08 08:02:19;;;;;;;11.55;7.25;;;;;;;27.36;52.53;100084.13;5068106;28;20537;-20
2023/07/08 08:04:46;;;;;;;14.15;6.68;;;;;;;27.43;51.75;100078.94;5067776;28;20052;-17
2023/07/08 08:07:11;;;;;;;9.45;5.82;;;;;;;27.49;49.94;100072.13;5067736;28;20028;-19
2023/07/08 08:09:37;;;;;;;7.15;5.88;;;;;;;27.65;51.10;100097.81;5067738;28;20037;-18
2023/07/08 08:12:04;;;;;;;9.48;5.05;;;;;;;27.52;47.77;100076.94;5066565;28;20684;-17
2023/07/08 08:14:29;;;;;;;8.50;6.00;;;;;;;27.57;48.47;100093.19;5067756;28;20158;-17
2023/07/08 08:16:55;;;;;;;8.30;5.78;;;;;;;27.49;49.83;100087.78;5067115;28;20028;-18
2023/07/08 08:19:20;;;;;;;8.40;5.28;;;;;;;27.57;47.58;100084.97;5067500;28;20085;-22
2023/07/08 08:21:46;;;;;;;8.07;5.15;;;;;;;27.47;49.36;100077.13;5067524;28;20032;-17
2023/07/08 08:24:13;;;;;;;7.88;5.15;;;;;;;27.20;48.03;100079.19;5067258;28;20430;-17
2023/07/08 08:26:39;;;;;;;8.50;4.95;;;;;;;27.21;47.74;100094.47;5067125;28;20063;-17
2023/07/08 08:29:04;;;;;;;7.78;5.18;;;;;;;27.94;50.35;100087.94;5067055;28;20084;-18
2023/07/08 08:31:32;;;;;;;6.72;4.78;;;;;;;28.25;45.82;100089.44;5067316;28;20043;-17
2023/07/08 08:33:57;;;;;;;;;;;;;;;28.70;45.58;100091.41;5067399;28;20064;-18
2023/07/08 08:36:23;;;;;;;7.20;4.30;;;;;;;28.65;45.96;100097.13;5067094;28;19951;-17
2023/07/08 08:38:49;;;;;;;8.65;4.95;;;;;;;28.76;43.94;100101.03;5066975;28;20267;-17
2023/07/08 08:41:18;;;;;;;7.88;4.93;;;;;;;28.79;45.24;100080.31;5066934;28;20025;-18
2023/07/08 08:43:45;;;;;;;7.85;4.95;;;;;;;28.74;45.13;100080.56;5067071;28;20024;-19
2023/07/08 08:46:32;;;;;;;8.25;5.03;;;;;;;28.87;43.33;100093.13;5067020;28;20598;-17
2023/07/08 08:49:07;;;;;;;6.80;4.65;;;;;;;28.75;44.04;100088.47;5067409;28;20047;-17
2023/07/08 08:51:33;;;;;;;8.38;5.28;;;;;;;28.01;44.79;100082.72;5067159;28;20082;-19
2023/07/08 08:53:59;;;;;;;8.27;5.30;;;;;;;27.97;46.19;100080.97;5066686;28;20024;-17
2023/07/08 08:56:32;;;;;;;8.20;4.68;;;;;;;27.68;46.09;100077.16;5066792;28;20713;-17
2023/07/08 08:59:13;;;;;;;7.47;4.90;;;;;;;27.45;46.65;100066.50;5066691;28;20028;-17
2023/07/08 09:01:38;;;;;;;8.13;4.78;;;;;;;27.55;45.64;100076.28;5066756;28;20051;-17
2023/07/08 09:04:11;;;;;;;8.93;5.00;;;;;;;27.94;46.31;100078.91;5066735;28;20444;-17
2023/07/08 09:06:38;;;;;;;7.97;4.72;;;;;;;27.94;45.40;100076.97;5066439;28;20040;-17
2023/07/08 09:09:16;;;;;;;8.20;4.00;;;;;;;28.54;44.82;100076.75;5065894;28;20025;-17
2023/07/08 09:11:44;;;;;;;7.40;4.80;;;;;;;28.90;45.16;100083.44;5066637;28;20889;-18
2023/07/08 09:14:26;;;;;;;8.05;4.80;;;;;;;28.41;42.91;100071.19;5066755;28;20035;-17
2023/07/08 09:17:13;;;;;;;10.70;5.18;;;;;;;28.12;44.67;100094.06;5066520;28;20113;-24
2023/07/08 09:20:00;;;;;;;6.78;4.63;;;;;;;28.43;44.61;100082.63;5066579;28;20036;-17
2023/07/08 09:22:28;;;;;;;;;;;;;;;28.33;43.12;100094.03;5066800;28;20039;-17
2023/07/08 09:25:04;;;;;;;8.75;4.75;;;;;;;28.30;43.81;100091.97;5066588;28;19920;-18
2023/07/08 09:27:32;;;;;;;9.23;4.80;;;;;;;28.43;44.64;100088.13;5065186;28;20136;-17
2023/07/08 09:29:57;;;;;;;;;;;;;;;28.66;45.04;100085.00;5065764;28;20409;-17
2023/07/08 09:32:25;;;;;;;7.05;4.60;;;;;;;29.20;43.96;100071.13;5065762;28;19923;-17
2023/07/08 09:35:04;;;;;;;7.07;5.07;;;;;;;29.67;42.65;100079.94;5066134;28;20417;-17
2023/07/08 09:37:30;;;;;;;8.68;5.13;;;;;;;29.69;43.41;100069.41;5065594;28;20417;-17
2023/07/08 09:39:58;;;;;;;8.77;4.85;;;;;;;30.25;41.24;100066.72;5066465;28;20036;-18
2023/07/08 09:42:34;;;;;;;7.38;4.05;;;;;;;30.41;40.46;100067.56;5066030;28;20035;-18
2023/07/08 09:45:05;;;;;;;8.57;4.73;;;;;;;30.68;38.76;100062.34;5065918;28;20059;-18
2023/07/08 09:47:36;;;;;;;6.57;4.88;;;;;;;30.59;40.29;100050.72;5065640;28;20024;-18
2023/07/08 09:50:18;;;;;;;8.40;3.97;;;;;;;30.99;38.69;100049.75;5065982;28;20020;-18
2023/07/08 09:52:46;;;;;;;5.80;3.90;;;;;;;30.26;39.65;100054.56;5066031;28;20078;-18
2023/07/08 09:55:11;;;;;;;8.80;4.53;;;;;;;29.65;41.18;100053.63;5065287;28;20077;-18
2023/07/08 09:57:40;;;;;;;8.07;4.60;;;;;;;29.36;43.91;100064.91;5065630;28;20020;-17
2023/07/08 10:00:12;;;;;;;7.63;5.18;;;;;;;29.06;45.51;100054.16;5065647;28;20031;-18
2023/07/08 10:02:41;;;;;;;8.40;4.97;;;;;;;28.53;50.24;100058.69;5065302;28;20552;-20
2023/07/08 10:05:21;;;;;;;13.00;4.90;;;;;;;28.39;51.47;100048.78;5065055;28;20049;-17
2023/07/08 10:07:50;;;;;;;7.60;4.80;;;;;;;28.34;54.82;100048.19;5064810;28;20026;-18
2023/07/08 10:10:24;;;;;;;8.68;4.43;;;;;;;28.37;56.37;100040.09;5064562;28;20059;-17
2023/07/08 10:12:59;;;;;;;8.52;5.22;;;;;;;28.51;55.59;100055.50;5064768;28;20119;-18
2023/07/08 10:15:32;;;;;;;8.20;5.30;;;;;;;29.21;54.35;100045.25;5065019;28;20385;-20
2023/07/08 10:17:58;;;;;;;9.57;5.80;;;;;;;28.51;53.71;100031.59;5065144;28;20027;-17
2023/07/08 10:20:28;;;;;;;9.23;5.60;;;;;;;28.52;54.43;100051.59;5064366;28;20025;-18
2023/07/08 10:23:10;;;;;;;9.68;5.35;;;;;;;28.91;55.70;100041.09;5064707;28;20036;-22
2023/07/08 10:25:55;;;;;;;9.13;4.90;;;;;;;28.78;52.73;100019.16;5064935;28;20101;-18
2023/07/08 10:28:52;;;;;;;8.38;5.50;;;;;;;28.45;56.21;100024.69;5064714;28;20045;-17
2023/07/08 10:31:32;;;;;;;6.13;4.43;;;;;;;28.55;53.63;100018.81;5058584;28;20045;-17
2023/07/08 10:34:02;;;;;;;8.75;5.18;;;;;;;29.53;51.35;100012.44;5064621;28;20139;-17
2023/07/08 10:36:36;;;;;;;6.95;4.63;;;;;;;29.95;47.79;100001.06;5064569;28;20025;-17
2023/07/08 10:39:43;;;;;;;7.22;4.80;;;;;;;29.98;49.91;100005.09;5064680;28;20029;-17
2023/07/08 10:42:37;;;;;;;7.70;4.65;;;;;;;30.05;47.15;100011.56;4999007;28;20044;-17
2023/07/08 10:45:15;;;;;;;10.30;4.43;;;;;;;30.37;48.31;99995.16;5034358;28;20112;-17
2023/07/08 10:47:47;;;;;;;8.25;4.75;;;;;;;30.03;47.71;99991.88;5064205;28;20036;-19
2023/07/08 10:50:37;;;;;;;8.27;5.18;;;;;;;29.82;49.57;99991.31;5064331;28;20028;-21
2023/07/08 10:53:21;;;;;;;8.13;4.70;;;;;;;30.09;50.19;99988.88;5064179;28;20031;-18
2023/07/08 10:56:07;;;;;;;7.85;5.32;;;;;;;29.91;49.48;99989.19;5064734;28;20078;-18
2023/07/08 10:59:06;;;;;;;8.88;5.07;;;;;;;29.64;50.64;99985.28;5064428;28;20040;-20
2023/07/08 11:01:43;;;;;;;8.63;4.82;;;;;;;30.16;48.60;99991.81;5064370;28;20044;-27
2023/07/08 11:04:26;;;;;;;8.25;4.88;;;;;;;30.31;46.75;100002.06;5064087;28;20067;-19
2023/07/08 11:06:58;;;;;;;8.32;5.50;;;;;;;30.03;45.87;99991.88;5064701;28;20183;-19
2023/07/08 11:09:51;;;;;;;8.52;5.03;;;;;;;30.22;47.59;100009.66;5064084;28;20111;-24
2023/07/08 11:12:26;;;;;;;7.53;4.45;;;;;;;30.58;47.37;99988.56;5064363;28;20024;-19
2023/07/08 11:15:01;;;;;;;7.28;4.30;;;;;;;30.26;45.34;99994.06;5064421;28;20060;-19
2023/07/08 11:17:46;;;;;;;6.93;4.32;;;;;;;31.48;44.05;99999.69;5064027;28;20020;-19
2023/07/08 11:20:41;;;;;;;6.55;4.05;;;;;;;31.85;42.65;100010.28;5064050;28;20032;-19
2023/07/08 11:23:34;;;;;;;5.88;3.85;;;;;;;31.95;40.92;100003.38;5060078;28;20049;-19
2023/07/08 11:26:11;;;;;;;8.02;4.05;;;;;;;32.52;42.12;100012.69;5064339;28;20029;-19
2023/07/08 11:28:37;;;;;;;6.28;4.85;;;;;;;31.61;44.12;100009.44;5063764;28;20478;-19
2023/07/08 11:31:05;;;;;;;7.43;4.50;;;;;;;31.46;44.97;100006.75;5064124;28;20033;-21